Orlando International Airport
KMCO : now visible

Airfield :











YOU CAN JOIN US ON...

 
LOGIN :

Register | Disclaimer

   EN    FR    IT 

 









Legend :    VFR   Marginal VFR   IFR   Intensive IFR   Very Intensive IFR
Visi :
Ceiling :
>= 8 km
>= 3000ft
5 to 8 km
1000 to 3000 ft
1500m to 5 km
500 to 1000 ft
800 to 1500m
200 to 500 ft
< 800m
< 200 ft
Symbols :   Thunderstorms  Fog  Heavy snow  Heavy precipitations  Wind > 20 kt






- Airport Elevation : 96 ft
- IATA code : MCO


KMCO - Orlando International

CURRENT METAR :
  • 092353Z 25009KT 10SM FEW050 SCT250 28/19 A2978 RMK AO2 SLP083 T02830189 10328 20283 53003

EXPIRED METARs :
  • 092253Z 26011KT 10SM FEW050 FEW250 30/19 A2978 RMK AO2 SLP081 T03000189
  • 092153Z 25016G20KT 10SM FEW046 FEW250 31/19 A2977 RMK AO2 SLP079 T03110189

TAF KMCO
Valid from the 10 at 00:00 until the 11 at 06:00 UTC


092320Z 1000/1106 26011KT P6SM SCT030 SCT250
FM100800 25010KT P6SM SCT008 BKN012
FM101400 33012KT P6SM FEW015 BKN025
FM101700 35016G24KT P6SM VCSH SCT030 BKN040
FM110000 36010KT P6SM SCT060 BKN250



MET'MAP, your aeronautical weather chart ! - Copyright ORBIFLY December 2007 - Disclaimer

ORBIFLY MET'MAP TEAM :

Programming & Development : Alexandra Zaïnal
Concept & original design : Baudouin d'Aumeries
Assistance for programming : Marc-Olivier Méhu
Technical & hardware support : Manuel Goepfert

Contact : metmap@orbifly.com




SOURCES & CREDITS :

   NOAA       Earth
Advisory